Pagrindinis puslapis
METAR-TAF:

METAR-TAF

Oro uostai :

Pago Pago, United States Minor Outlying Islands

platuma: 14-20S, ilguma: 170-43W, Aukštis: 3 m

Dabartinis oras

Ataskaita buvo paskelbta 54 minutes, ne 07:50 UTC
Vėjas 14 kt iš Pietų
Temperatūra 27°C
Drėgmė 79%
Slėgis 1012 hPa
Matomumas: 16.1 km
Išsisklaidę debesys ne aukštis 2000 ft
Su prošvaistėmis ne aukštis 4000 ft
Su prošvaistėmis ne aukštis 10000 ft

METAR: NSTU 220750Z 19014KT 10SM SCT020 BKN040 BKN100 27/23 A2988 RMK SLP119 T02730228

Laikas: 21:44 (08:44 UTC)

Prognozė

Ataskaita buvo paskelbta 3 valandos ir 23 minutes, ne 05:21 UTC
Prognozė galioja nuo 22 metu 06 UTC su 23 metu 06 UTC
Vėjas 10 kt iš Pietų
Matomumas: 10 km
Išsisklaidę debesys ne aukštis 1500 ft
Su prošvaistėmis ne aukštis 4000 ft
Su prošvaistėmis ne aukštis 10000 ft
Liūtis kaimynystėje,

TAF: NSTU 220521Z 2206/2306 18010KT P6SM VCSH SCT015 BKN040 BKN100

Orai ataskaitas ir orų prognozės (METAR, TAF).

turimą stotys yra geltonos ir raudonos taškus žemėlapyje.

Perkelti pele per norėdami pamatyti stoties vardą.

Tada spustelėkite, norėdami matyti oro stebėjimo ir prognozės.

Norėdami pakeisti žemėlapį: spustelėkite ant žalios mygtukų su juodo kryžiaus žemyn,; žalią mygtuką su brūkšneliu, jei norite nutolinti; arba žalių rodyklių gretimoms žemėlapius.


METAR-TAF: